Time;durP1;ratioP1;P1;durP2;ratioP2;P2;SDS_P1;SDS_P2;PMS_P1;PMS_P2;Temp;Humidity;BMP_temperature;BMP_pressure;BME280_temperature;BME280_humidity;BME280_pressure;Samples;Min_cycle;Max_cycle;Signal;HPM_P1;HPM_P2
2022/06/18 00:00:39;;;;;;;;;;;486.90;2380.80;;;;;;5071438;28;19999;-61
2022/06/18 00:03:04;;;;;;;;;;;486.90;2380.80;;;;;;5071222;28;20002;-61
2022/06/18 00:05:31;;;;;;;;;;;486.90;2380.80;;;;;;5071109;28;19911;-61
2022/06/18 00:07:57;;;;;;;;;;;486.90;2380.80;;;;;;5071223;28;19912;-60
2022/06/18 00:10:24;;;;;;;;;;;486.90;2380.80;;;;;;5070786;28;19916;-61
2022/06/18 00:15:36;;;;;;;;;;;486.80;2380.80;;;;;;5071154;28;20009;-61
2022/06/18 00:18:02;;;;;;;;;;;486.70;2380.80;;;;;;5070722;28;19912;-61
2022/06/18 00:20:30;;;;;;;;;;;486.70;2380.80;;;;;;5070946;28;19905;-61
2022/06/18 00:22:57;;;;;;;;;;;486.60;2380.80;;;;;;5070964;28;19904;-55
2022/06/18 00:25:28;;;;;;;;;;;486.60;2380.80;;;;;;5052753;28;19927;-55
2022/06/18 00:27:54;;;;;;;;;;;486.60;2380.80;;;;;;5070420;28;19931;-54
2022/06/18 00:30:21;;;;;;;;;;;486.60;2380.80;;;;;;5070624;28;20351;-55
2022/06/18 00:32:47;;;;;;;;;;;486.60;2380.80;;;;;;5070840;28;19995;-55
2022/06/18 00:35:14;;;;;;;;;;;486.50;2380.80;;;;;;5070608;28;19935;-53
2022/06/18 00:37:40;;;;;;;;;;;486.50;2380.80;;;;;;5070452;28;19915;-55
2022/06/18 00:40:12;;;;;;;;;;;486.50;2380.80;;;;;;5070721;28;19991;-55
2022/06/18 00:42:38;;;;;;;;;;;486.50;2380.80;;;;;;5070165;28;19904;-55
2022/06/18 00:45:04;;;;;;;;;;;486.50;2380.80;;;;;;5070477;28;19908;-55
2022/06/18 00:47:41;;;;;;;;;;;486.50;2380.80;;;;;;5070319;28;20320;-56
2022/06/18 00:50:06;;;;;;;;;;;486.50;2380.80;;;;;;5070265;28;20350;-54
2022/06/18 00:52:35;;;;;;;;;;;486.50;2380.80;;;;;;5070380;28;19911;-55
2022/06/18 00:55:05;;;;;;;;;;;486.50;2380.80;;;;;;5070399;28;20369;-55
2022/06/18 00:57:43;;;;;;;;;;;486.60;2380.80;;;;;;5070293;28;19913;-56
2022/06/18 01:00:11;;;;;;;;;;;486.60;2380.80;;;;;;5070318;28;19978;-55
2022/06/18 01:02:39;;;;;;;;;;;486.60;2380.80;;;;;;5070494;28;19957;-54
2022/06/18 01:05:15;;;;;;;;;;;486.70;2380.80;;;;;;5070178;28;19904;-55
2022/06/18 01:07:41;;;;;;;;;;;486.80;2380.80;;;;;;5070505;28;19905;-55
2022/06/18 01:10:13;;;;;;;;;;;486.80;2380.80;;;;;;5070448;28;19912;-54
2022/06/18 01:12:39;;;;;;;;;;;486.80;2380.80;;;;;;5070281;28;19905;-55
2022/06/18 01:15:08;;;;;;;;;;;486.80;2380.80;;;;;;5070384;28;20425;-55
2022/06/18 01:17:35;;;;;;;;;;;486.90;2380.80;;;;;;5070058;28;20442;-55
2022/06/18 01:20:04;;;;;;;;;;;486.90;2380.80;;;;;;5070242;28;19911;-55
2022/06/18 01:22:36;;;;;;;;;;;486.90;2380.80;;;;;;5070161;28;19908;-54
2022/06/18 01:25:05;;;;;;;;;;;486.90;2380.80;;;;;;5070110;28;19911;-55
2022/06/18 01:27:30;;;;;;;;;;;486.90;2380.80;;;;;;5069805;28;19908;-55
2022/06/18 01:29:56;;;;;;;;;;;486.90;2380.80;;;;;;5070057;28;20008;-55
2022/06/18 01:32:22;;;;;;;;;;;486.90;2380.80;;;;;;5069884;28;19904;-55
2022/06/18 01:34:48;;;;;;;;;;;486.90;2380.80;;;;;;5070285;28;19905;-56
2022/06/18 01:37:14;;;;;;;;;;;487.00;2380.80;;;;;;5070050;28;20402;-55
2022/06/18 01:39:42;;;;;;;;;;;487.00;2380.80;;;;;;5069853;28;20017;-55
2022/06/18 01:42:16;;;;;;;;;;;487.10;2380.80;;;;;;5070080;28;19912;-55
2022/06/18 01:44:56;;;;;;;;;;;487.10;2380.80;;;;;;5069857;28;19908;-55
2022/06/18 01:47:26;;;;;;;;;;;487.10;2380.80;;;;;;5070008;28;19951;-55
2022/06/18 01:49:57;;;;;;;;;;;487.10;2380.80;;;;;;5069701;28;19923;-55
2022/06/18 01:52:26;;;;;;;;;;;487.00;2380.80;;;;;;5069812;28;19947;-55
2022/06/18 01:54:53;;;;;;;;;;;487.10;2380.80;;;;;;5071371;28;19912;-55
2022/06/18 01:57:24;;;;;;;;;;;487.00;2380.80;;;;;;5073483;28;19943;-55
2022/06/18 01:59:52;;;;;;;;;;;486.90;2380.80;;;;;;5073171;28;19973;-55
2022/06/18 02:02:18;;;;;;;;;;;486.90;2380.80;;;;;;5073768;28;20012;-54
2022/06/18 02:04:44;;;;;;;;;;;486.80;2380.80;;;;;;5073618;28;20397;-55
2022/06/18 02:07:10;;;;;;;;;;;486.80;2380.80;;;;;;5073357;28;19915;-54
2022/06/18 02:09:41;;;;;;;;;;;486.80;2380.80;;;;;;5073442;28;19984;-54
2022/06/18 02:12:09;;;;;;;;;;;486.70;2380.80;;;;;;5073550;28;20307;-54
2022/06/18 02:14:37;;;;;;;;;;;486.70;2380.80;;;;;;5073518;28;20072;-55
2022/06/18 02:17:05;;;;;;;;;;;486.60;2380.80;;;;;;5073291;28;19911;-56
2022/06/18 02:19:33;;;;;;;;;;;486.60;2380.80;;;;;;5072959;28;19904;-55
2022/06/18 02:21:59;;;;;;;;;;;486.50;2380.80;;;;;;5073233;28;20385;-55
2022/06/18 02:24:25;;;;;;;;;;;486.50;2380.80;;;;;;5073023;28;19905;-55
2022/06/18 02:26:51;;;;;;;;;;;486.40;2380.80;;;;;;5072773;28;19936;-55
2022/06/18 02:29:21;;;;;;;;;;;486.40;2380.80;;;;;;5072965;28;19971;-56
2022/06/18 02:31:47;;;;;;;;;;;486.40;2380.80;;;;;;5072860;28;19908;-55
2022/06/18 02:34:30;;;;;;;;;;;461.70;2380.80;;;;;;5072959;28;20273;-56
2022/06/18 02:36:56;;;;;;;;;;;461.70;2380.80;;;;;;5072935;28;20355;-56
2022/06/18 02:39:24;;;;;;;;;;;461.70;2380.80;;;;;;5072608;28;19957;-55
2022/06/18 02:42:01;;;;;;;;;;;486.40;2380.80;;;;;;5072396;28;19908;-55
2022/06/18 02:44:27;;;;;;;;;;;486.40;2380.80;;;;;;5072814;28;19996;-56
2022/06/18 02:46:52;;;;;;;;;;;486.40;2380.80;;;;;;5072487;28;19999;-55
2022/06/18 02:49:18;;;;;;;;;;;486.40;2380.80;;;;;;5072613;28;19912;-55
2022/06/18 02:51:44;;;;;;;;;;;486.50;2380.80;;;;;;5072386;28;19911;-56
2022/06/18 02:54:10;;;;;;;;;;;486.40;2380.80;;;;;;5072173;28;19961;-56
2022/06/18 02:56:36;;;;;;;;;;;486.40;2380.80;;;;;;5072631;28;19908;-56
2022/06/18 02:59:04;;;;;;;;;;;461.70;2380.80;;;;;;5072024;28;19923;-55
2022/06/18 03:01:32;;;;;;;;;;;461.70;2380.80;;;;;;5072412;28;20351;-56
2022/06/18 03:03:58;;;;;;;;;;;486.40;2380.80;;;;;;5072551;28;19908;-55
2022/06/18 03:06:25;;;;;;;;;;;461.70;2380.80;;;;;;5072171;28;19904;-55
2022/06/18 03:08:51;;;;;;;;;;;461.70;2380.80;;;;;;5072012;28;19908;-55
2022/06/18 03:14:02;;;;;;;;;;;486.40;2380.80;;;;;;5072205;28;19927;-56
2022/06/18 03:16:28;;;;;;;;;;;486.40;2380.80;;;;;;5072292;28;19912;-55
2022/06/18 03:18:55;;;;;;;;;;;486.40;2380.80;;;;;;5071833;28;20026;-55
2022/06/18 03:21:31;;;;;;;;;;;486.40;2380.80;;;;;;5071994;28;19985;-55
2022/06/18 03:23:57;;;;;;;;;;;486.40;2380.80;;;;;;5072175;28;20244;-55
2022/06/18 03:26:23;;;;;;;;;;;486.40;2380.80;;;;;;5071749;28;19912;-55
2022/06/18 03:28:48;;;;;;;;;;;486.50;2380.80;;;;;;5071643;28;19912;-55
2022/06/18 03:31:14;;;;;;;;;;;486.50;2380.80;;;;;;5071778;28;20446;-54
2022/06/18 03:33:41;;;;;;;;;;;486.60;2380.80;;;;;;5071688;28;19908;-56
2022/06/18 03:36:07;;;;;;;;;;;486.60;2380.80;;;;;;5071761;28;19958;-55
2022/06/18 03:38:33;;;;;;;;;;;486.60;2380.80;;;;;;5071509;28;19904;-55
2022/06/18 03:40:59;;;;;;;;;;;486.60;2380.80;;;;;;5071753;28;19950;-55
2022/06/18 03:43:25;;;;;;;;;;;486.80;2380.80;;;;;;5071357;28;19904;-55
2022/06/18 03:45:52;;;;;;;;;;;486.70;2380.80;;;;;;5071221;28;19911;-55
2022/06/18 03:48:29;;;;;;;;;;;486.80;2380.80;;;;;;5071479;28;19911;-55
2022/06/18 03:50:55;;;;;;;;;;;486.80;2380.80;;;;;;5071097;28;19912;-55
2022/06/18 03:53:20;;;;;;;;;;;486.80;2380.80;;;;;;5071217;28;19904;-56
2022/06/18 03:55:46;;;;;;;;;;;486.80;2380.80;;;;;;5071316;28;19949;-56
2022/06/18 03:58:12;;;;;;;;;;;486.80;2380.80;;;;;;5070852;28;19912;-55
2022/06/18 04:00:37;;;;;;;;;;;486.80;2380.80;;;;;;5071269;28;19912;-55
2022/06/18 04:03:03;;;;;;;;;;;486.80;2380.80;;;;;;5070891;28;19966;-55
2022/06/18 04:05:30;;;;;;;;;;;486.80;2380.80;;;;;;5071211;28;19958;-55
2022/06/18 04:07:55;;;;;;;;;;;486.80;2380.80;;;;;;5071091;28;19905;-55
2022/06/18 04:10:21;;;;;;;;;;;486.80;2380.80;;;;;;5070976;28;19965;-55
2022/06/18 04:12:48;;;;;;;;;;;486.90;2380.80;;;;;;5070948;28;19910;-55
2022/06/18 04:15:15;;;;;;;;;;;487.00;2380.80;;;;;;5070978;28;19905;-55
2022/06/18 04:17:41;;;;;;;;;;;487.00;2380.80;;;;;;5070423;28;20289;-55
2022/06/18 04:20:07;;;;;;;;;;;487.10;2380.80;;;;;;5070919;28;19998;-55
2022/06/18 04:22:33;;;;;;;;;;;487.10;2380.80;;;;;;5070670;28;19927;-55
2022/06/18 04:24:58;;;;;;;;;;;487.20;2380.80;;;;;;5070798;28;19904;-55
2022/06/18 04:27:24;;;;;;;;;;;487.30;2380.80;;;;;;5070574;28;20006;-55
2022/06/18 04:29:49;;;;;;;;;;;512.00;2380.80;;;;;;5070727;28;19924;-55
2022/06/18 04:32:15;;;;;;;;;;;563.20;2432.00;;;;;;5070808;28;19911;-55
2022/06/18 04:34:40;;;;;;;;;;;666.50;1868.80;;;;;;5070536;28;19934;-55
2022/06/18 04:37:06;;;;;;;;;;;743.10;1587.20;;;;;;5070719;28;19905;-55
2022/06/18 04:39:32;;;;;;;;;;;768.60;1510.40;;;;;;5070432;28;19994;-55
2022/06/18 04:41:58;;;;;;;;;;;819.30;1433.60;;;;;;5070587;28;19958;-55
2022/06/18 04:44:24;;;;;;;;;;;845.20;1356.80;;;;;;5070515;28;19987;-55
2022/06/18 04:46:49;;;;;;;;;;;870.70;1280.00;;;;;;5070626;28;20381;-55
2022/06/18 04:49:15;;;;;;;;;;;845.60;1280.00;;;;;;5070597;28;20342;-55
2022/06/18 04:51:41;;;;;;;;;;;896.40;1177.60;;;;;;5070359;28;19905;-56
2022/06/18 04:54:06;;;;;;;;;;;922.50;1126.40;;;;;;5069742;28;20251;-54
2022/06/18 04:56:32;;;;;;;;;;;947.80;1075.20;;;;;;5068776;28;19909;-54
2022/06/18 04:58:57;;;;;;;;;;;947.80;1075.20;;;;;;5068619;28;19912;-56
2022/06/18 05:01:27;;;;;;;;;;;948.10;1049.60;;;;;;5068742;28;19912;-56
2022/06/18 05:03:52;;;;;;;;;;;973.10;1049.60;;;;;;5066330;28;20418;-56
2022/06/18 05:06:18;;;;;;;;;;;973.00;1049.60;;;;;;5068971;28;19940;-55
2022/06/18 05:08:43;;;;;;;;;;;973.50;1024.00;;;;;;5069144;28;20377;-55
2022/06/18 05:11:09;;;;;;;;;;;948.10;1024.00;;;;;;5068868;28;19978;-56
2022/06/18 05:13:34;;;;;;;;;;;973.40;1024.00;;;;;;5068705;28;19909;-56
2022/06/18 05:16:00;;;;;;;;;;;998.60;998.40;;;;;;5068807;28;19910;-56
2022/06/18 05:18:28;;;;;;;;;;;999.20;972.80;;;;;;5068883;28;20351;-56
2022/06/18 05:20:53;;;;;;;;;;;1024.00;972.80;;;;;;5068715;28;19957;-55
2022/06/18 05:23:20;;;;;;;;;;;1024.20;972.80;;;;;;5068789;28;19927;-55
2022/06/18 05:25:46;;;;;;;;;;;1024.60;947.20;;;;;;5068881;28;19912;-57
2022/06/18 05:28:12;;;;;;;;;;;1024.10;947.20;;;;;;5069147;28;19961;-57
2022/06/18 05:30:38;;;;;;;;;;;1024.70;947.20;;;;;;5072694;28;19923;-55
2022/06/18 05:33:04;;;;;;;;;;;1024.30;947.20;;;;;;5072499;28;19904;-56
2022/06/18 05:35:31;;;;;;;;;;;1049.70;947.20;;;;;;5072513;28;19908;-55
2022/06/18 05:37:57;;;;;;;;;;;1050.50;921.60;;;;;;5072633;28;20342;-56
2022/06/18 05:40:22;;;;;;;;;;;1075.50;896.00;;;;;;5072941;28;19987;-57
2022/06/18 05:42:48;;;;;;;;;;;1075.90;870.40;;;;;;5074039;28;19904;-57
2022/06/18 05:45:14;;;;;;;;;;;1076.10;870.40;;;;;;5073800;28;19910;-57
2022/06/18 05:47:39;;;;;;;;;;;1101.10;896.00;;;;;;5072599;28;19912;-56
2022/06/18 05:50:06;;;;;;;;;;;1076.10;870.40;;;;;;5072326;28;19969;-56
2022/06/18 05:52:32;;;;;;;;;;;1101.20;870.40;;;;;;5072143;28;19904;-57
2022/06/18 05:54:58;;;;;;;;;;;1075.70;870.40;;;;;;5072361;28;20336;-57
2022/06/18 05:57:24;;;;;;;;;;;1075.20;896.00;;;;;;5072070;28;19966;-57
2022/06/18 05:59:50;;;;;;;;;;;1050.50;896.00;;;;;;5072106;28;20351;-57
2022/06/18 06:02:17;;;;;;;;;;;1075.40;870.40;;;;;;5072237;28;19911;-56
2022/06/18 06:04:42;;;;;;;;;;;1101.30;870.40;;;;;;5072031;28;19904;-56
2022/06/18 06:07:20;;;;;;;;;;;1101.20;870.40;;;;;;5072091;28;19915;-56
2022/06/18 06:12:30;;;;;;;;;;;1101.50;870.40;;;;;;5071771;28;19927;-56
2022/06/18 06:14:56;;;;;;;;;;;1152.00;844.80;;;;;;5072234;28;20354;-55
2022/06/18 06:17:23;;;;;;;;;;;1126.50;844.80;;;;;;5071797;28;20363;-55
2022/06/18 06:19:49;;;;;;;;;;;1127.10;819.20;;;;;;5071970;28;19951;-57
2022/06/18 06:22:15;;;;;;;;;;;1101.60;844.80;;;;;;5072492;28;19948;-55
2022/06/18 06:24:41;;;;;;;;;;;1126.40;844.80;;;;;;5072427;28;19943;-57
2022/06/18 06:27:07;;;;;;;;;;;1126.80;844.80;;;;;;5072601;28;19904;-57
2022/06/18 06:29:32;;;;;;;;;;;1127.30;819.20;;;;;;5071766;28;19935;-57
2022/06/18 06:31:58;;;;;;;;;;;1126.40;870.40;;;;;;5073213;28;19965;-56
2022/06/18 06:34:24;;;;;;;;;;;1126.70;844.80;;;;;;5072815;28;20384;-57
2022/06/18 06:36:51;;;;;;;;;;;1101.60;844.80;;;;;;5072614;28;20389;-58
2022/06/18 06:39:16;;;;;;;;;;;1126.60;870.40;;;;;;5072904;28;20019;-57
2022/06/18 06:41:42;;;;;;;;;;;1101.40;870.40;;;;;;5071958;28;19990;-57
2022/06/18 06:44:08;;;;;;;;;;;1101.70;870.40;;;;;;5072803;28;20333;-56
2022/06/18 06:46:33;;;;;;;;;;;1152.50;793.60;;;;;;5072560;28;19908;-57
2022/06/18 06:48:59;;;;;;;;;;;1152.20;819.20;;;;;;5072526;28;20278;-56
2022/06/18 06:51:26;;;;;;;;;;;1177.60;793.60;;;;;;5072361;28;19950;-56
2022/06/18 06:53:52;;;;;;;;;;;1152.60;819.20;;;;;;5072524;28;19904;-57
2022/06/18 06:59:03;;;;;;;;;;;1127.10;819.20;;;;;;5072199;28;19938;-57
2022/06/18 07:01:28;;;;;;;;;;;1152.20;819.20;;;;;;5072645;28;19963;-57
2022/06/18 07:03:54;;;;;;;;;;;1177.80;793.60;;;;;;5072123;28;20287;-57
2022/06/18 07:06:20;;;;;;;;;;;1178.00;768.00;;;;;;5072346;28;19909;-57
2022/06/18 07:08:46;;;;;;;;;;;1178.20;768.00;;;;;;5072344;28;19904;-57
2022/06/18 07:11:13;;;;;;;;;;;1177.80;768.00;;;;;;5072224;28;19977;-57
2022/06/18 07:13:39;;;;;;;;;;;1177.80;742.40;;;;;;5072340;28;19908;-57
2022/06/18 07:16:05;;;;;;;;;;;1152.50;768.00;;;;;;5071957;28;19912;-57
2022/06/18 07:18:33;;;;;;;;;;;1127.10;793.60;;;;;;5071924;28;19911;-57
2022/06/18 07:21:00;;;;;;;;;;;1127.10;793.60;;;;;;5072025;28;20346;-57
2022/06/18 07:23:25;;;;;;;;;;;1177.70;768.00;;;;;;5071967;28;19914;-56
2022/06/18 07:25:51;;;;;;;;;;;1178.10;768.00;;;;;;5071720;28;20267;-57
2022/06/18 07:28:16;;;;;;;;;;;1152.70;768.00;;;;;;5070946;28;19909;-58
2022/06/18 07:30:42;;;;;;;;;;;1152.50;793.60;;;;;;5070076;28;19923;-57
2022/06/18 07:33:09;;;;;;;;;;;1152.70;793.60;;;;;;5070351;28;20386;-58
2022/06/18 07:35:35;;;;;;;;;;;1203.20;716.80;;;;;;5070118;28;20274;-57
2022/06/18 07:38:02;;;;;;;;;;;1203.20;742.40;;;;;;5069828;28;19904;-57
2022/06/18 07:40:31;;;;;;;;;;;1178.30;716.80;;;;;;5070032;28;19909;-57
2022/06/18 07:42:57;;;;;;;;;;;1152.40;768.00;;;;;;5069677;28;20270;-57
2022/06/18 07:45:24;;;;;;;;;;;1177.70;768.00;;;;;;5069669;28;19911;-58
2022/06/18 07:47:50;;;;;;;;;;;1203.30;742.40;;;;;;5069884;28;20129;-55
2022/06/18 07:50:17;;;;;;;;;;;1203.30;742.40;;;;;;5069612;28;19913;-54
2022/06/18 07:52:44;;;;;;;;;;;;;;;;;;5068782;28;19911;-56
2022/06/18 07:55:12;;;;;;;;;;;1203.70;742.40;;;;;;5069457;28;20320;-56
2022/06/18 07:57:37;;;;;;;;;;;1203.60;742.40;;;;;;5069785;28;20356;-56
2022/06/18 08:00:04;;;;;;;;;;;1203.30;742.40;;;;;;5069338;28;20007;-55
2022/06/18 08:02:30;;;;;;;;;;;1203.80;716.80;;;;;;5069852;28;20426;-56
2022/06/18 08:04:55;;;;;;;;;;;1203.20;742.40;;;;;;5069556;28;20007;-55
2022/06/18 08:07:21;;;;;;;;;;;1203.20;768.00;;;;;;5069055;28;19955;-55
2022/06/18 08:09:47;;;;;;;;;;;1177.60;742.40;;;;;;5070692;28;19912;-56
2022/06/18 08:12:12;;;;;;;;;;;1152.10;793.60;;;;;;5071254;28;20357;-56
2022/06/18 08:14:38;;;;;;;;;;;1101.50;844.80;;;;;;5071114;28;19904;-55
2022/06/18 08:17:03;;;;;;;;;;;999.20;896.00;;;;;;5070850;28;19904;-55
2022/06/18 08:19:29;;;;;;;;;;;948.10;921.60;;;;;;5070972;28;19916;-55
2022/06/18 08:21:55;;;;;;;;;;;922.10;998.40;;;;;;5070984;28;19912;-56
2022/06/18 08:24:21;;;;;;;;;;;871.30;1024.00;;;;;;5070663;28;19905;-55
2022/06/18 08:26:47;;;;;;;;;;;845.60;1100.80;;;;;;5070933;28;19911;-55
2022/06/18 08:29:15;;;;;;;;;;;845.50;1100.80;;;;;;5070352;28;20408;-55
2022/06/18 08:31:40;;;;;;;;;;;844.90;1152.00;;;;;;5070540;28;20354;-55
2022/06/18 08:34:06;;;;;;;;;;;844.80;1177.60;;;;;;5070727;28;19915;-54
2022/06/18 08:36:32;;;;;;;;;;;819.30;1177.60;;;;;;5068010;28;19909;-54
2022/06/18 08:38:57;;;;;;;;;;;819.40;1177.60;;;;;;5069053;28;20447;-53
2022/06/18 08:41:34;;;;;;;;;;;794.50;1203.20;;;;;;5069143;28;19980;-54
2022/06/18 08:44:19;;;;;;;;;;;794.50;1203.20;;;;;;5068960;28;19908;-55
2022/06/18 08:47:04;;;;;;;;;;;794.30;1203.20;;;;;;5069151;28;20005;-54
2022/06/18 08:49:48;;;;;;;;;;;794.00;1280.00;;;;;;5068491;28;20015;-55
2022/06/18 08:52:20;;;;;;;;;;;793.70;1228.80;;;;;;5068949;28;19963;-55
2022/06/18 08:55:04;;;;;;;;;;;768.90;1254.40;;;;;;5069083;28;19904;-54
2022/06/18 08:57:32;;;;;;;;;;;793.90;1254.40;;;;;;5068454;28;19912;-55
2022/06/18 09:00:05;;;;;;;;;;;793.90;1254.40;;;;;;5068763;28;19950;-55
2022/06/18 09:02:39;;;;;;;;;;;793.90;1254.40;;;;;;5068390;28;19915;-54
2022/06/18 09:05:16;;;;;;;;;;;794.30;1254.40;;;;;;5075279;28;19961;-53
2022/06/18 09:08:14;;;;;;;;;;;793.90;1254.40;;;;;;5075259;28;19926;-54
2022/06/18 09:10:45;;;;;;;;;;;794.50;1254.40;;;;;;4973909;28;20364;-53
2022/06/18 09:13:19;;;;;;;;;;;793.90;1228.80;;;;;;4973850;28;19953;-54
2022/06/18 09:15:47;;;;;;;;;;;793.70;1254.40;;;;;;4973763;28;20427;-54
2022/06/18 09:18:20;;;;;;;;;;;768.60;1254.40;;;;;;4973891;28;19956;-55
2022/06/18 09:21:07;;;;;;;;;;;768.10;1305.60;;;;;;4974444;28;20284;-55
2022/06/18 09:24:05;;;;;;;;;;;768.20;1305.60;;;;;;4975086;28;19997;-56
2022/06/18 09:26:36;;;;;;;;;;;742.70;1305.60;;;;;;4937265;29;20340;-54
2022/06/18 09:29:22;;;;;;;;;;;743.00;1331.20;;;;;;4936783;29;19915;-55
2022/06/18 09:31:48;;;;;;;;;;;743.20;1305.60;;;;;;4937065;29;20009;-54
2022/06/18 09:34:17;;;;;;;;;;;743.00;1305.60;;;;;;4937037;29;20006;-57
2022/06/18 09:36:44;;;;;;;;;;;743.10;1331.20;;;;;;4937176;29;20309;-54
2022/06/18 09:39:11;;;;;;;;;;;743.10;1305.60;;;;;;4937157;29;20428;-54
2022/06/18 09:41:56;;;;;;;;;;;743.30;1305.60;;;;;;4937062;29;20478;-54
2022/06/18 09:44:29;;;;;;;;;;;768.10;1331.20;;;;;;4898847;29;19924;-56
2022/06/18 09:46:58;;;;;;;;;;;768.40;1331.20;;;;;;4928653;29;19917;-54
2022/06/18 09:49:24;;;;;;;;;;;768.10;1305.60;;;;;;4936818;29;19918;-54
2022/06/18 09:52:02;;;;;;;;;;;768.30;1331.20;;;;;;4936906;29;19915;-57
2022/06/18 09:54:30;;;;;;;;;;;768.60;1331.20;;;;;;4937074;29;20009;-55
2022/06/18 09:57:00;;;;;;;;;;;768.60;1305.60;;;;;;4936858;29;19910;-59
2022/06/18 09:59:29;;;;;;;;;;;768.70;1305.60;;;;;;4936804;29;20469;-59
2022/06/18 10:01:56;;;;;;;;;;;793.90;1331.20;;;;;;4962141;28;19906;-59
2022/06/18 10:07:08;;;;;;;;;;;793.70;1331.20;;;;;;4994981;28;19916;-59
2022/06/18 10:09:36;;;;;;;;;;;793.70;1305.60;;;;;;4994586;28;20008;-59
2022/06/18 10:12:20;;;;;;;;;;;768.40;1228.80;;;;;;4994810;28;19949;-56
2022/06/18 10:14:48;;;;;;;;;;;743.30;1203.20;;;;;;4992954;28;19905;-56
2022/06/18 10:17:22;;;;;;;;;;;768.30;1254.40;;;;;;4991861;28;19945;-55
2022/06/18 10:20:06;;;;;;;;;;;743.00;1280.00;;;;;;4991819;28;19906;-58
2022/06/18 10:22:32;;;;;;;;;;;768.00;1280.00;;;;;;5068471;28;19950;-56
2022/06/18 10:25:06;;;;;;;;;;;768.10;1254.40;;;;;;5073210;28;19905;-56
2022/06/18 10:27:38;;;;;;;;;;;768.30;1305.60;;;;;;5072801;28;20346;-56
2022/06/18 10:30:05;;;;;;;;;;;768.30;1280.00;;;;;;5072923;28;19920;-55
2022/06/18 10:32:49;;;;;;;;;;;768.30;1280.00;;;;;;5072854;28;19909;-58
2022/06/18 10:35:19;;;;;;;;;;;768.10;1280.00;;;;;;5073187;28;19912;-56
2022/06/18 10:38:05;;;;;;;;;;;768.10;1280.00;;;;;;5072907;28;19958;-56
2022/06/18 10:40:45;;;;;;;;;;;743.30;1254.40;;;;;;5072596;28;20289;-56
2022/06/18 10:43:13;;;;;;;;;;;743.00;1254.40;;;;;;5072467;28;19973;-58
2022/06/18 10:45:42;;;;;;;;;;;743.20;1331.20;;;;;;5069600;28;20418;-57
2022/06/18 10:48:11;;;;;;;;;;;768.40;1305.60;;;;;;5072182;28;20006;-56
2022/06/18 10:51:03;;;;;;;;;;;768.30;1305.60;;;;;;5072172;28;20018;-55
2022/06/18 10:53:30;;;;;;;;;;;768.00;1331.20;;;;;;5061222;28;20398;-57
2022/06/18 10:56:00;;;;;;;;;;;743.10;1331.20;;;;;;5069396;28;19959;-59
2022/06/18 10:58:25;;;;;;;;;;;768.00;1331.20;;;;;;5071814;28;19908;-56
2022/06/18 11:01:03;;;;;;;;;;;768.00;1254.40;;;;;;5071675;28;20373;-54
2022/06/18 11:03:30;;;;;;;;;;;743.30;1331.20;;;;;;5067539;28;19905;-56
2022/06/18 11:05:56;;;;;;;;;;;768.00;1305.60;;;;;;5071998;28;19930;-54
2022/06/18 11:08:23;;;;;;;;;;;743.30;1331.20;;;;;;5072143;28;20014;-54
2022/06/18 11:10:51;;;;;;;;;;;742.90;1280.00;;;;;;5072309;28;19919;-56
2022/06/18 11:13:27;;;;;;;;;;;742.50;1356.80;;;;;;5072466;28;20310;-58
2022/06/18 11:16:11;;;;;;;;;;;742.60;1331.20;;;;;;5072025;28;19904;-58
2022/06/18 11:18:44;;;;;;;;;;;742.50;1305.60;;;;;;5071730;28;19904;-55
2022/06/18 11:21:14;;;;;;;;;;;742.50;1382.40;;;;;;5053713;28;20372;-57
2022/06/18 11:23:45;;;;;;;;;;;717.50;1331.20;;;;;;5071984;28;19909;-57
2022/06/18 11:26:15;;;;;;;;;;;717.20;1331.20;;;;;;5071871;28;19915;-54
2022/06/18 11:28:43;;;;;;;;;;;717.10;1356.80;;;;;;5072045;28;20254;-55
2022/06/18 11:31:13;;;;;;;;;;;717.00;1382.40;;;;;;5070453;28;20015;-55
2022/06/18 11:33:52;;;;;;;;;;;716.90;1331.20;;;;;;5067947;28;19912;-55
2022/06/18 11:36:18;;;;;;;;;;;717.10;1356.80;;;;;;5067823;28;19928;-56
2022/06/18 11:38:55;;;;;;;;;;;717.20;1356.80;;;;;;5070210;28;20383;-54
2022/06/18 11:41:31;;;;;;;;;;;691.90;1382.40;;;;;;5067748;28;20278;-57
2022/06/18 11:43:59;;;;;;;;;;;691.80;1382.40;;;;;;5070241;28;19912;-55
2022/06/18 11:46:37;;;;;;;;;;;691.80;1382.40;;;;;;5070309;28;19912;-53
2022/06/18 11:49:08;;;;;;;;;;;691.80;1356.80;;;;;;5067796;28;20366;-55
2022/06/18 11:51:46;;;;;;;;;;;716.90;1408.00;;;;;;5069588;28;19963;-54
2022/06/18 11:54:32;;;;;;;;;;;717.20;1382.40;;;;;;5069737;28;19950;-59
2022/06/18 11:57:16;;;;;;;;;;;717.10;1356.80;;;;;;5069784;28;19904;-59
2022/06/18 11:59:49;;;;;;;;;;;717.30;1356.80;;;;;;5050777;28;20322;-54
2022/06/18 12:02:27;;;;;;;;;;;717.30;1382.40;;;;;;5051221;28;19992;-59
2022/06/18 12:04:56;;;;;;;;;;;716.90;1305.60;;;;;;5051138;28;19982;-56
2022/06/18 12:07:28;;;;;;;;;;;692.00;1305.60;;;;;;5051069;28;19905;-54
2022/06/18 12:09:55;;;;;;;;;;;716.80;1382.40;;;;;;5050759;28;20377;-54
2022/06/18 12:12:26;;;;;;;;;;;717.10;1331.20;;;;;;5050765;28;19934;-58
2022/06/18 12:15:10;;;;;;;;;;;717.30;1331.20;;;;;;5067960;28;19908;-55
2022/06/18 12:17:47;;;;;;;;;;;717.20;1331.20;;;;;;5068756;28;19908;-54
2022/06/18 12:20:20;;;;;;;;;;;717.30;1305.60;;;;;;5065289;28;19904;-55
2022/06/18 12:22:49;;;;;;;;;;;717.10;1356.80;;;;;;5069581;28;19904;-56
2022/06/18 12:25:27;;;;;;;;;;;717.20;1305.60;;;;;;5069469;28;19943;-55
2022/06/18 12:28:16;;;;;;;;;;;717.40;1331.20;;;;;;5070480;28;19908;-56
2022/06/18 12:30:45;;;;;;;;;;;717.60;1305.60;;;;;;5057372;28;19920;-56
2022/06/18 12:33:12;;;;;;;;;;;717.70;1280.00;;;;;;5070731;28;19962;-56
2022/06/18 12:35:47;;;;;;;;;;;717.70;1228.80;;;;;;5070652;28;19905;-55
2022/06/18 12:38:24;;;;;;;;;;;717.30;1228.80;;;;;;5069926;28;19955;-56
2022/06/18 12:41:10;;;;;;;;;;;717.40;1228.80;;;;;;5070413;28;20011;-56
2022/06/18 12:43:40;;;;;;;;;;;717.60;1280.00;;;;;;5070629;28;19915;-55
2022/06/18 12:46:12;;;;;;;;;;;717.60;1254.40;;;;;;5070511;28;19908;-56
2022/06/18 12:48:59;;;;;;;;;;;717.40;1305.60;;;;;;5070576;28;19904;-55
2022/06/18 12:51:24;;;;;;;;;;;717.40;1331.20;;;;;;5070494;28;19913;-55
2022/06/18 12:53:56;;;;;;;;;;;742.40;1331.20;;;;;;5070426;28;20286;-58
2022/06/18 12:56:22;;;;;;;;;;;742.90;1305.60;;;;;;5070323;28;19978;-55
2022/06/18 12:59:13;;;;;;;;;;;742.90;1280.00;;;;;;5070135;28;20368;-57
2022/06/18 13:01:59;;;;;;;;;;;742.50;1331.20;;;;;;5031986;28;20397;-59
2022/06/18 13:04:37;;;;;;;;;;;717.70;1331.20;;;;;;5070280;28;20365;-56
2022/06/18 13:07:03;;;;;;;;;;;717.20;1356.80;;;;;;5070270;28;19908;-56
2022/06/18 13:09:28;;;;;;;;;;;692.10;1356.80;;;;;;5070426;28;20259;-56
2022/06/18 13:11:57;;;;;;;;;;;691.70;1408.00;;;;;;5070240;28;20373;-54
2022/06/18 13:14:37;;;;;;;;;;;691.90;1408.00;;;;;;5070292;28;19948;-56
2022/06/18 13:17:10;;;;;;;;;;;691.90;1433.60;;;;;;5070112;28;19912;-56
2022/06/18 13:19:51;;;;;;;;;;;691.90;1408.00;;;;;;5070271;28;19908;-55
2022/06/18 13:22:16;;;;;;;;;;;691.90;1408.00;;;;;;5070365;28;19904;-56
2022/06/18 13:30:23;;;;;;;;;;;692.10;1382.40;;;;;;5069997;28;20351;-56
2022/06/18 13:33:06;;;;;;;;;;;692.00;1305.60;;;;;;5070477;28;19936;-55
2022/06/18 13:35:40;;;;;;;;;;;717.00;1382.40;;;;;;5070075;28;19904;-55
2022/06/18 13:38:15;;;;;;;;;;;717.20;1356.80;;;;;;5070033;28;19994;-55
2022/06/18 13:40:41;;;;;;;;;;;717.20;1305.60;;;;;;5069972;28;20377;-56
2022/06/18 13:43:10;;;;;;;;;;;717.20;1280.00;;;;;;5069999;28;19904;-58
2022/06/18 13:45:54;;;;;;;;;;;716.80;1305.60;;;;;;5070058;28;19909;-56
2022/06/18 13:48:20;;;;;;;;;;;717.20;1356.80;;;;;;5069924;28;19961;-57
2022/06/18 13:50:47;;;;;;;;;;;717.50;1331.20;;;;;;5071504;28;19916;-55
2022/06/18 13:53:25;;;;;;;;;;;717.60;1331.20;;;;;;5073680;28;19904;-56
2022/06/18 13:55:51;;;;;;;;;;;717.50;1305.60;;;;;;5073463;28;19904;-55
2022/06/18 13:58:18;;;;;;;;;;;717.60;1305.60;;;;;;5073316;28;19908;-56
2022/06/18 14:00:44;;;;;;;;;;;717.50;1305.60;;;;;;5073531;28;19912;-57
2022/06/18 14:03:15;;;;;;;;;;;717.30;1331.20;;;;;;5073416;28;20395;-57
2022/06/18 14:05:41;;;;;;;;;;;717.40;1305.60;;;;;;5073436;28;19949;-56
2022/06/18 14:08:19;;;;;;;;;;;717.50;1280.00;;;;;;5073507;28;19999;-56
2022/06/18 14:10:45;;;;;;;;;;;717.70;1331.20;;;;;;5072237;28;19955;-59
2022/06/18 14:13:13;;;;;;;;;;;742.40;1356.80;;;;;;5072355;28;19940;-55